sensor_id;sensor_type;location;lat;lon;timestamp;P1;durP1;ratioP1;P2;durP2;ratioP2
8007;SDS011;4049;49.468;11.200;2022-12-18T00:00:39;27.43;;;12.10;;
8007;SDS011;4049;49.468;11.200;2022-12-18T00:03:06;21.80;;;10.13;;
8007;SDS011;4049;49.468;11.200;2022-12-18T00:05:33;23.13;;;9.47;;
8007;SDS011;4049;49.468;11.200;2022-12-18T00:08:00;24.10;;;9.87;;
8007;SDS011;4049;49.468;11.200;2022-12-18T00:10:28;27.87;;;10.57;;
8007;SDS011;4049;49.468;11.200;2022-12-18T00:12:55;26.57;;;9.73;;
8007;SDS011;4049;49.468;11.200;2022-12-18T00:15:22;22.83;;;9.97;;
8007;SDS011;4049;49.468;11.200;2022-12-18T00:17:49;22.97;;;9.43;;
8007;SDS011;4049;49.468;11.200;2022-12-18T00:20:16;21.03;;;9.67;;
8007;SDS011;4049;49.468;11.200;2022-12-18T00:22:50;21.50;;;9.17;;
8007;SDS011;4049;49.468;11.200;2022-12-18T00:25:17;22.97;;;8.70;;
8007;SDS011;4049;49.468;11.200;2022-12-18T00:27:45;23.20;;;9.13;;
8007;SDS011;4049;49.468;11.200;2022-12-18T00:30:12;25.43;;;9.37;;
8007;SDS011;4049;49.468;11.200;2022-12-18T00:32:39;22.93;;;9.77;;
8007;SDS011;4049;49.468;11.200;2022-12-18T00:35:06;26.50;;;10.13;;
8007;SDS011;4049;49.468;11.200;2022-12-18T00:37:34;20.03;;;8.83;;
8007;SDS011;4049;49.468;11.200;2022-12-18T00:40:00;20.07;;;8.73;;
8007;SDS011;4049;49.468;11.200;2022-12-18T00:42:28;23.10;;;10.27;;
8007;SDS011;4049;49.468;11.200;2022-12-18T00:45:14;20.37;;;9.70;;
8007;SDS011;4049;49.468;11.200;2022-12-18T00:47:40;19.13;;;8.60;;
8007;SDS011;4049;49.468;11.200;2022-12-18T00:50:08;19.13;;;8.50;;
8007;SDS011;4049;49.468;11.200;2022-12-18T00:52:35;21.40;;;9.07;;
8007;SDS011;4049;49.468;11.200;2022-12-18T00:55:02;22.27;;;9.60;;
8007;SDS011;4049;49.468;11.200;2022-12-18T00:57:29;18.53;;;8.00;;
8007;SDS011;4049;49.468;11.200;2022-12-18T00:59:56;20.07;;;9.07;;
8007;SDS011;4049;49.468;11.200;2022-12-18T01:02:24;22.60;;;8.60;;
8007;SDS011;4049;49.468;11.200;2022-12-18T01:04:51;20.33;;;9.03;;
8007;SDS011;4049;49.468;11.200;2022-12-18T01:07:18;16.73;;;8.80;;
8007;SDS011;4049;49.468;11.200;2022-12-18T01:09:45;21.23;;;9.40;;
8007;SDS011;4049;49.468;11.200;2022-12-18T01:12:12;16.03;;;8.07;;
8007;SDS011;4049;49.468;11.200;2022-12-18T01:14:38;21.30;;;8.70;;
8007;SDS011;4049;49.468;11.200;2022-12-18T01:17:05;20.93;;;7.80;;
8007;SDS011;4049;49.468;11.200;2022-12-18T01:19:33;19.80;;;9.53;;
8007;SDS011;4049;49.468;11.200;2022-12-18T01:22:00;20.50;;;9.70;;
8007;SDS011;4049;49.468;11.200;2022-12-18T01:24:27;17.10;;;8.83;;
8007;SDS011;4049;49.468;11.200;2022-12-18T01:26:54;20.27;;;9.03;;
8007;SDS011;4049;49.468;11.200;2022-12-18T01:29:22;21.47;;;8.53;;
8007;SDS011;4049;49.468;11.200;2022-12-18T01:31:48;21.20;;;9.67;;
8007;SDS011;4049;49.468;11.200;2022-12-18T01:34:15;21.43;;;8.10;;
8007;SDS011;4049;49.468;11.200;2022-12-18T01:36:43;20.23;;;8.23;;
8007;SDS011;4049;49.468;11.200;2022-12-18T01:39:11;27.63;;;9.47;;
8007;SDS011;4049;49.468;11.200;2022-12-18T01:41:39;20.13;;;8.13;;
8007;SDS011;4049;49.468;11.200;2022-12-18T01:47:32;19.03;;;7.93;;
8007;SDS011;4049;49.468;11.200;2022-12-18T01:50:02;16.73;;;7.37;;
8007;SDS011;4049;49.468;11.200;2022-12-18T01:52:34;11.47;;;7.17;;
8007;SDS011;4049;49.468;11.200;2022-12-18T01:55:02;15.47;;;6.13;;
8007;SDS011;4049;49.468;11.200;2022-12-18T01:57:31;17.23;;;7.53;;
8007;SDS011;4049;49.468;11.200;2022-12-18T02:00:00;19.30;;;7.50;;
8007;SDS011;4049;49.468;11.200;2022-12-18T02:02:30;11.97;;;7.23;;
8007;SDS011;4049;49.468;11.200;2022-12-18T02:04:57;15.70;;;7.63;;
8007;SDS011;4049;49.468;11.200;2022-12-18T02:07:25;16.60;;;6.87;;
8007;SDS011;4049;49.468;11.200;2022-12-18T02:10:03;16.13;;;7.57;;
8007;SDS011;4049;49.468;11.200;2022-12-18T02:12:39;17.80;;;7.40;;
8007;SDS011;4049;49.468;11.200;2022-12-18T02:15:11;15.83;;;7.37;;
8007;SDS011;4049;49.468;11.200;2022-12-18T02:17:42;11.33;;;6.03;;
8007;SDS011;4049;49.468;11.200;2022-12-18T02:20:14;15.07;;;6.83;;
8007;SDS011;4049;49.468;11.200;2022-12-18T02:22:49;12.43;;;5.83;;
8007;SDS011;4049;49.468;11.200;2022-12-18T02:25:33;12.30;;;6.47;;
8007;SDS011;4049;49.468;11.200;2022-12-18T02:28:24;12.67;;;5.73;;
8007;SDS011;4049;49.468;11.200;2022-12-18T02:30:54;14.90;;;7.03;;
8007;SDS011;4049;49.468;11.200;2022-12-18T02:33:23;15.90;;;6.23;;
8007;SDS011;4049;49.468;11.200;2022-12-18T02:35:52;17.37;;;6.87;;
8007;SDS011;4049;49.468;11.200;2022-12-18T02:38:21;14.20;;;6.60;;
8007;SDS011;4049;49.468;11.200;2022-12-18T02:40:50;20.00;;;7.20;;
8007;SDS011;4049;49.468;11.200;2022-12-18T02:43:19;11.20;;;6.43;;
8007;SDS011;4049;49.468;11.200;2022-12-18T02:45:48;14.03;;;7.17;;
8007;SDS011;4049;49.468;11.200;2022-12-18T02:48:18;13.33;;;6.00;;
8007;SDS011;4049;49.468;11.200;2022-12-18T02:50:50;11.63;;;6.33;;
8007;SDS011;4049;49.468;11.200;2022-12-18T02:53:27;14.80;;;6.53;;
8007;SDS011;4049;49.468;11.200;2022-12-18T02:56:01;13.53;;;5.83;;
8007;SDS011;4049;49.468;11.200;2022-12-18T02:58:34;13.33;;;5.83;;
8007;SDS011;4049;49.468;11.200;2022-12-18T03:01:11;16.33;;;6.97;;
8007;SDS011;4049;49.468;11.200;2022-12-18T03:03:43;13.10;;;6.90;;
8007;SDS011;4049;49.468;11.200;2022-12-18T03:06:18;15.10;;;6.10;;
8007;SDS011;4049;49.468;11.200;2022-12-18T03:08:50;24.30;;;6.03;;
8007;SDS011;4049;49.468;11.200;2022-12-18T03:11:21;14.93;;;6.87;;
8007;SDS011;4049;49.468;11.200;2022-12-18T03:14:03;13.57;;;5.93;;
8007;SDS011;4049;49.468;11.200;2022-12-18T03:16:35;11.53;;;5.70;;
8007;SDS011;4049;49.468;11.200;2022-12-18T03:19:03;16.73;;;6.70;;
8007;SDS011;4049;49.468;11.200;2022-12-18T03:21:33;13.80;;;6.50;;
8007;SDS011;4049;49.468;11.200;2022-12-18T03:24:04;13.97;;;5.97;;
8007;SDS011;4049;49.468;11.200;2022-12-18T03:26:33;11.10;;;5.23;;
8007;SDS011;4049;49.468;11.200;2022-12-18T03:29:03;11.30;;;5.83;;
8007;SDS011;4049;49.468;11.200;2022-12-18T03:31:35;14.40;;;5.87;;
8007;SDS011;4049;49.468;11.200;2022-12-18T03:34:08;13.93;;;5.87;;
8007;SDS011;4049;49.468;11.200;2022-12-18T03:36:39;19.00;;;7.73;;
8007;SDS011;4049;49.468;11.200;2022-12-18T03:39:06;17.13;;;6.53;;
8007;SDS011;4049;49.468;11.200;2022-12-18T03:41:34;12.83;;;6.87;;
8007;SDS011;4049;49.468;11.200;2022-12-18T03:44:08;8.23;;;4.67;;
8007;SDS011;4049;49.468;11.200;2022-12-18T03:46:48;11.77;;;6.53;;
8007;SDS011;4049;49.468;11.200;2022-12-18T03:49:23;13.57;;;6.23;;
8007;SDS011;4049;49.468;11.200;2022-12-18T03:51:57;12.50;;;6.13;;
8007;SDS011;4049;49.468;11.200;2022-12-18T03:54:29;12.83;;;5.63;;
8007;SDS011;4049;49.468;11.200;2022-12-18T03:56:58;15.70;;;6.20;;
8007;SDS011;4049;49.468;11.200;2022-12-18T03:59:29;16.83;;;5.90;;
8007;SDS011;4049;49.468;11.200;2022-12-18T04:01:58;16.57;;;5.80;;
8007;SDS011;4049;49.468;11.200;2022-12-18T04:04:27;15.90;;;6.10;;
8007;SDS011;4049;49.468;11.200;2022-12-18T04:06:56;13.60;;;6.97;;
8007;SDS011;4049;49.468;11.200;2022-12-18T04:09:24;14.57;;;6.70;;
8007;SDS011;4049;49.468;11.200;2022-12-18T04:11:51;17.97;;;7.13;;
8007;SDS011;4049;49.468;11.200;2022-12-18T04:14:18;10.87;;;5.80;;
8007;SDS011;4049;49.468;11.200;2022-12-18T04:16:46;11.77;;;6.13;;
8007;SDS011;4049;49.468;11.200;2022-12-18T04:19:14;15.30;;;6.93;;
8007;SDS011;4049;49.468;11.200;2022-12-18T04:21:41;20.00;;;6.50;;
8007;SDS011;4049;49.468;11.200;2022-12-18T04:24:08;18.13;;;7.37;;
8007;SDS011;4049;49.468;11.200;2022-12-18T04:26:35;13.30;;;6.83;;
8007;SDS011;4049;49.468;11.200;2022-12-18T04:29:01;21.87;;;7.93;;
8007;SDS011;4049;49.468;11.200;2022-12-18T04:31:28;17.87;;;6.83;;
8007;SDS011;4049;49.468;11.200;2022-12-18T04:33:55;15.27;;;6.27;;
8007;SDS011;4049;49.468;11.200;2022-12-18T04:36:23;20.63;;;7.03;;
8007;SDS011;4049;49.468;11.200;2022-12-18T04:38:50;18.80;;;7.17;;
8007;SDS011;4049;49.468;11.200;2022-12-18T04:41:17;14.60;;;6.90;;
8007;SDS011;4049;49.468;11.200;2022-12-18T04:43:44;19.67;;;7.83;;
8007;SDS011;4049;49.468;11.200;2022-12-18T04:46:10;14.33;;;7.47;;
8007;SDS011;4049;49.468;11.200;2022-12-18T04:48:38;15.57;;;6.13;;
8007;SDS011;4049;49.468;11.200;2022-12-18T04:51:05;17.37;;;7.73;;
8007;SDS011;4049;49.468;11.200;2022-12-18T04:53:34;16.50;;;7.53;;
8007;SDS011;4049;49.468;11.200;2022-12-18T04:56:02;17.80;;;7.03;;
8007;SDS011;4049;49.468;11.200;2022-12-18T04:58:30;13.10;;;6.33;;
8007;SDS011;4049;49.468;11.200;2022-12-18T05:00:57;16.10;;;7.23;;
8007;SDS011;4049;49.468;11.200;2022-12-18T05:03:24;13.63;;;7.13;;
8007;SDS011;4049;49.468;11.200;2022-12-18T05:05:50;14.63;;;7.37;;
8007;SDS011;4049;49.468;11.200;2022-12-18T05:08:18;19.47;;;7.97;;
8007;SDS011;4049;49.468;11.200;2022-12-18T05:10:46;16.30;;;7.33;;
8007;SDS011;4049;49.468;11.200;2022-12-18T05:13:13;15.27;;;7.27;;
8007;SDS011;4049;49.468;11.200;2022-12-18T05:15:40;17.90;;;7.70;;
8007;SDS011;4049;49.468;11.200;2022-12-18T05:18:07;15.90;;;7.57;;
8007;SDS011;4049;49.468;11.200;2022-12-18T05:20:34;20.37;;;8.00;;
8007;SDS011;4049;49.468;11.200;2022-12-18T05:23:01;19.67;;;7.83;;
8007;SDS011;4049;49.468;11.200;2022-12-18T05:25:28;25.03;;;10.57;;
8007;SDS011;4049;49.468;11.200;2022-12-18T05:27:56;20.47;;;9.37;;
8007;SDS011;4049;49.468;11.200;2022-12-18T05:30:23;19.60;;;8.47;;
8007;SDS011;4049;49.468;11.200;2022-12-18T05:32:50;19.97;;;7.40;;
8007;SDS011;4049;49.468;11.200;2022-12-18T05:35:17;23.20;;;8.90;;
8007;SDS011;4049;49.468;11.200;2022-12-18T05:37:44;23.90;;;10.20;;
8007;SDS011;4049;49.468;11.200;2022-12-18T05:40:11;22.03;;;8.47;;
8007;SDS011;4049;49.468;11.200;2022-12-18T05:42:38;19.83;;;8.50;;
8007;SDS011;4049;49.468;11.200;2022-12-18T05:45:07;23.10;;;8.77;;
8007;SDS011;4049;49.468;11.200;2022-12-18T05:47:34;16.10;;;8.03;;
8007;SDS011;4049;49.468;11.200;2022-12-18T05:50:01;24.83;;;9.87;;
8007;SDS011;4049;49.468;11.200;2022-12-18T05:52:28;23.83;;;9.00;;
8007;SDS011;4049;49.468;11.200;2022-12-18T05:54:54;24.93;;;9.30;;
8007;SDS011;4049;49.468;11.200;2022-12-18T05:57:21;16.47;;;7.67;;
8007;SDS011;4049;49.468;11.200;2022-12-18T05:59:48;22.83;;;8.53;;
8007;SDS011;4049;49.468;11.200;2022-12-18T06:02:16;22.73;;;9.93;;
8007;SDS011;4049;49.468;11.200;2022-12-18T06:04:45;24.73;;;8.93;;
8007;SDS011;4049;49.468;11.200;2022-12-18T06:07:13;22.37;;;9.20;;
8007;SDS011;4049;49.468;11.200;2022-12-18T06:09:39;23.03;;;9.10;;
8007;SDS011;4049;49.468;11.200;2022-12-18T06:12:06;25.27;;;9.27;;
8007;SDS011;4049;49.468;11.200;2022-12-18T06:14:33;26.20;;;10.27;;
8007;SDS011;4049;49.468;11.200;2022-12-18T06:17:00;25.03;;;7.60;;
8007;SDS011;4049;49.468;11.200;2022-12-18T06:19:28;22.43;;;9.50;;
8007;SDS011;4049;49.468;11.200;2022-12-18T06:21:55;19.47;;;8.63;;
8007;SDS011;4049;49.468;11.200;2022-12-18T06:24:23;19.93;;;9.30;;
8007;SDS011;4049;49.468;11.200;2022-12-18T06:26:50;29.90;;;10.00;;
8007;SDS011;4049;49.468;11.200;2022-12-18T06:29:17;15.40;;;7.13;;
8007;SDS011;4049;49.468;11.200;2022-12-18T06:31:44;20.30;;;8.77;;
8007;SDS011;4049;49.468;11.200;2022-12-18T06:34:11;17.60;;;8.70;;
8007;SDS011;4049;49.468;11.200;2022-12-18T06:36:39;24.40;;;9.40;;
8007;SDS011;4049;49.468;11.200;2022-12-18T06:39:06;26.93;;;10.43;;
8007;SDS011;4049;49.468;11.200;2022-12-18T06:41:33;33.77;;;12.00;;
8007;SDS011;4049;49.468;11.200;2022-12-18T06:43:59;35.27;;;14.40;;
8007;SDS011;4049;49.468;11.200;2022-12-18T06:46:26;32.93;;;12.33;;
8007;SDS011;4049;49.468;11.200;2022-12-18T06:48:53;25.40;;;11.63;;
8007;SDS011;4049;49.468;11.200;2022-12-18T06:51:20;26.57;;;11.53;;
8007;SDS011;4049;49.468;11.200;2022-12-18T06:53:50;27.47;;;11.60;;
8007;SDS011;4049;49.468;11.200;2022-12-18T06:56:16;25.37;;;10.50;;
8007;SDS011;4049;49.468;11.200;2022-12-18T06:58:43;34.90;;;11.43;;
8007;SDS011;4049;49.468;11.200;2022-12-18T07:01:10;27.33;;;11.73;;
8007;SDS011;4049;49.468;11.200;2022-12-18T07:03:38;28.87;;;10.43;;
8007;SDS011;4049;49.468;11.200;2022-12-18T07:06:06;21.77;;;10.10;;
8007;SDS011;4049;49.468;11.200;2022-12-18T07:08:38;28.07;;;9.83;;
8007;SDS011;4049;49.468;11.200;2022-12-18T07:11:06;25.07;;;10.73;;
8007;SDS011;4049;49.468;11.200;2022-12-18T07:13:33;24.07;;;10.50;;
8007;SDS011;4049;49.468;11.200;2022-12-18T07:16:03;24.37;;;11.23;;
8007;SDS011;4049;49.468;11.200;2022-12-18T07:18:32;23.17;;;8.77;;
8007;SDS011;4049;49.468;11.200;2022-12-18T07:21:01;25.07;;;10.17;;
8007;SDS011;4049;49.468;11.200;2022-12-18T07:23:29;43.87;;;14.53;;
8007;SDS011;4049;49.468;11.200;2022-12-18T07:26:03;28.87;;;11.73;;
8007;SDS011;4049;49.468;11.200;2022-12-18T07:28:32;30.20;;;11.33;;
8007;SDS011;4049;49.468;11.200;2022-12-18T07:31:01;30.20;;;12.07;;
8007;SDS011;4049;49.468;11.200;2022-12-18T07:33:29;28.80;;;12.47;;
8007;SDS011;4049;49.468;11.200;2022-12-18T07:35:55;36.80;;;13.10;;
8007;SDS011;4049;49.468;11.200;2022-12-18T07:38:24;29.20;;;11.47;;
8007;SDS011;4049;49.468;11.200;2022-12-18T07:40:51;34.47;;;11.13;;
8007;SDS011;4049;49.468;11.200;2022-12-18T07:43:18;26.60;;;10.40;;
8007;SDS011;4049;49.468;11.200;2022-12-18T07:45:48;24.53;;;10.70;;
8007;SDS011;4049;49.468;11.200;2022-12-18T07:48:15;25.13;;;10.27;;
8007;SDS011;4049;49.468;11.200;2022-12-18T07:50:42;30.63;;;12.13;;
8007;SDS011;4049;49.468;11.200;2022-12-18T07:53:09;25.67;;;10.93;;
8007;SDS011;4049;49.468;11.200;2022-12-18T07:55:36;27.40;;;11.47;;
8007;SDS011;4049;49.468;11.200;2022-12-18T07:58:03;27.03;;;11.17;;
8007;SDS011;4049;49.468;11.200;2022-12-18T08:00:30;22.40;;;9.47;;
8007;SDS011;4049;49.468;11.200;2022-12-18T08:02:58;27.33;;;10.43;;
8007;SDS011;4049;49.468;11.200;2022-12-18T08:05:25;25.53;;;11.80;;
8007;SDS011;4049;49.468;11.200;2022-12-18T08:07:52;25.00;;;9.40;;
8007;SDS011;4049;49.468;11.200;2022-12-18T08:10:21;28.37;;;10.83;;
8007;SDS011;4049;49.468;11.200;2022-12-18T08:12:48;24.87;;;11.53;;
8007;SDS011;4049;49.468;11.200;2022-12-18T08:15:16;28.07;;;12.00;;
8007;SDS011;4049;49.468;11.200;2022-12-18T08:17:43;35.47;;;12.83;;
8007;SDS011;4049;49.468;11.200;2022-12-18T08:20:12;30.30;;;10.93;;
8007;SDS011;4049;49.468;11.200;2022-12-18T08:22:40;28.20;;;11.37;;
8007;SDS011;4049;49.468;11.200;2022-12-18T08:25:07;29.33;;;13.03;;
8007;SDS011;4049;49.468;11.200;2022-12-18T08:27:34;29.40;;;12.50;;
8007;SDS011;4049;49.468;11.200;2022-12-18T08:30:02;25.27;;;10.27;;
8007;SDS011;4049;49.468;11.200;2022-12-18T08:32:29;26.43;;;10.70;;
8007;SDS011;4049;49.468;11.200;2022-12-18T08:34:57;19.73;;;9.73;;
8007;SDS011;4049;49.468;11.200;2022-12-18T08:37:26;29.60;;;12.00;;
8007;SDS011;4049;49.468;11.200;2022-12-18T08:39:52;27.33;;;10.33;;
8007;SDS011;4049;49.468;11.200;2022-12-18T08:42:19;25.63;;;11.60;;
8007;SDS011;4049;49.468;11.200;2022-12-18T08:45:04;29.47;;;12.73;;
8007;SDS011;4049;49.468;11.200;2022-12-18T08:47:31;25.60;;;9.97;;
8007;SDS011;4049;49.468;11.200;2022-12-18T08:49:58;22.77;;;9.17;;
8007;SDS011;4049;49.468;11.200;2022-12-18T08:52:26;27.70;;;9.40;;
8007;SDS011;4049;49.468;11.200;2022-12-18T08:54:53;23.50;;;8.70;;
8007;SDS011;4049;49.468;11.200;2022-12-18T08:57:20;25.83;;;9.00;;
8007;SDS011;4049;49.468;11.200;2022-12-18T08:59:46;24.90;;;11.07;;
8007;SDS011;4049;49.468;11.200;2022-12-18T09:02:14;32.20;;;10.47;;
8007;SDS011;4049;49.468;11.200;2022-12-18T09:04:41;34.50;;;11.07;;
8007;SDS011;4049;49.468;11.200;2022-12-18T09:07:08;22.50;;;9.73;;
8007;SDS011;4049;49.468;11.200;2022-12-18T09:09:36;31.63;;;11.07;;
8007;SDS011;4049;49.468;11.200;2022-12-18T09:12:03;25.53;;;9.93;;
8007;SDS011;4049;49.468;11.200;2022-12-18T09:14:30;33.93;;;11.57;;
8007;SDS011;4049;49.468;11.200;2022-12-18T09:16:57;28.47;;;10.50;;
8007;SDS011;4049;49.468;11.200;2022-12-18T09:19:24;26.47;;;10.70;;
8007;SDS011;4049;49.468;11.200;2022-12-18T09:21:53;27.40;;;11.23;;
8007;SDS011;4049;49.468;11.200;2022-12-18T09:24:20;27.50;;;11.07;;
8007;SDS011;4049;49.468;11.200;2022-12-18T09:26:52;29.00;;;11.30;;
8007;SDS011;4049;49.468;11.200;2022-12-18T09:29:19;34.97;;;11.30;;
8007;SDS011;4049;49.468;11.200;2022-12-18T09:31:46;32.17;;;11.67;;
8007;SDS011;4049;49.468;11.200;2022-12-18T09:34:14;28.03;;;10.27;;
8007;SDS011;4049;49.468;11.200;2022-12-18T09:36:41;31.23;;;11.73;;
8007;SDS011;4049;49.468;11.200;2022-12-18T09:39:08;28.07;;;11.27;;
8007;SDS011;4049;49.468;11.200;2022-12-18T09:41:45;28.30;;;10.73;;
8007;SDS011;4049;49.468;11.200;2022-12-18T09:44:24;28.47;;;10.97;;
8007;SDS011;4049;49.468;11.200;2022-12-18T09:47:04;34.37;;;11.53;;
8007;SDS011;4049;49.468;11.200;2022-12-18T09:49:36;36.10;;;11.80;;
8007;SDS011;4049;49.468;11.200;2022-12-18T09:52:08;33.50;;;11.20;;
8007;SDS011;4049;49.468;11.200;2022-12-18T09:54:43;32.23;;;11.57;;
8007;SDS011;4049;49.468;11.200;2022-12-18T09:57:15;29.50;;;12.00;;
8007;SDS011;4049;49.468;11.200;2022-12-18T09:59:50;29.40;;;11.50;;
8007;SDS011;4049;49.468;11.200;2022-12-18T10:02:20;34.93;;;11.97;;
8007;SDS011;4049;49.468;11.200;2022-12-18T10:05:04;27.07;;;11.10;;
8007;SDS011;4049;49.468;11.200;2022-12-18T10:07:47;25.73;;;10.53;;
8007;SDS011;4049;49.468;11.200;2022-12-18T10:10:22;30.70;;;11.30;;
8007;SDS011;4049;49.468;11.200;2022-12-18T10:12:56;26.40;;;10.07;;
8007;SDS011;4049;49.468;11.200;2022-12-18T10:15:30;33.63;;;11.73;;
8007;SDS011;4049;49.468;11.200;2022-12-18T10:18:04;25.63;;;9.93;;
8007;SDS011;4049;49.468;11.200;2022-12-18T10:20:41;23.73;;;9.67;;
8007;SDS011;4049;49.468;11.200;2022-12-18T10:23:13;26.20;;;9.30;;
8007;SDS011;4049;49.468;11.200;2022-12-18T10:25:50;31.87;;;10.37;;
8007;SDS011;4049;49.468;11.200;2022-12-18T10:28:21;26.27;;;10.30;;
8007;SDS011;4049;49.468;11.200;2022-12-18T10:30:52;25.97;;;10.53;;
8007;SDS011;4049;49.468;11.200;2022-12-18T10:33:19;25.27;;;9.53;;
8007;SDS011;4049;49.468;11.200;2022-12-18T10:35:48;23.70;;;9.60;;
8007;SDS011;4049;49.468;11.200;2022-12-18T10:38:22;31.90;;;11.33;;
8007;SDS011;4049;49.468;11.200;2022-12-18T10:40:51;22.17;;;10.20;;
8007;SDS011;4049;49.468;11.200;2022-12-18T10:43:21;24.13;;;9.20;;
8007;SDS011;4049;49.468;11.200;2022-12-18T10:46:12;25.63;;;10.83;;
8007;SDS011;4049;49.468;11.200;2022-12-18T10:48:48;21.43;;;9.70;;
8007;SDS011;4049;49.468;11.200;2022-12-18T10:51:20;24.07;;;9.53;;
8007;SDS011;4049;49.468;11.200;2022-12-18T10:53:53;26.10;;;10.07;;
8007;SDS011;4049;49.468;11.200;2022-12-18T10:56:23;26.53;;;9.43;;
8007;SDS011;4049;49.468;11.200;2022-12-18T10:58:56;19.37;;;9.23;;
8007;SDS011;4049;49.468;11.200;2022-12-18T11:01:27;22.30;;;10.60;;
8007;SDS011;4049;49.468;11.200;2022-12-18T11:04:00;24.73;;;9.60;;
8007;SDS011;4049;49.468;11.200;2022-12-18T11:06:28;20.30;;;8.50;;
8007;SDS011;4049;49.468;11.200;2022-12-18T11:08:59;23.93;;;10.63;;
8007;SDS011;4049;49.468;11.200;2022-12-18T11:11:27;23.97;;;9.63;;
8007;SDS011;4049;49.468;11.200;2022-12-18T11:13:58;26.63;;;10.40;;
8007;SDS011;4049;49.468;11.200;2022-12-18T11:16:30;23.10;;;9.33;;
8007;SDS011;4049;49.468;11.200;2022-12-18T11:19:17;28.07;;;10.50;;
8007;SDS011;4049;49.468;11.200;2022-12-18T11:21:49;20.23;;;8.80;;
8007;SDS011;4049;49.468;11.200;2022-12-18T11:24:19;20.07;;;8.67;;
8007;SDS011;4049;49.468;11.200;2022-12-18T11:26:56;29.93;;;11.37;;
8007;SDS011;4049;49.468;11.200;2022-12-18T11:29:27;30.10;;;12.10;;
8007;SDS011;4049;49.468;11.200;2022-12-18T11:35:10;46.73;;;15.27;;
8007;SDS011;4049;49.468;11.200;2022-12-18T11:37:43;77.23;;;27.77;;
8007;SDS011;4049;49.468;11.200;2022-12-18T11:40:15;30.80;;;12.00;;
8007;SDS011;4049;49.468;11.200;2022-12-18T11:42:46;26.80;;;12.20;;
8007;SDS011;4049;49.468;11.200;2022-12-18T11:45:26;27.93;;;10.97;;
8007;SDS011;4049;49.468;11.200;2022-12-18T11:48:02;26.23;;;10.57;;
8007;SDS011;4049;49.468;11.200;2022-12-18T11:50:33;27.53;;;10.27;;
8007;SDS011;4049;49.468;11.200;2022-12-18T11:53:12;24.03;;;10.60;;
8007;SDS011;4049;49.468;11.200;2022-12-18T11:55:41;25.33;;;8.83;;
8007;SDS011;4049;49.468;11.200;2022-12-18T11:58:18;21.17;;;9.47;;
8007;SDS011;4049;49.468;11.200;2022-12-18T12:01:03;21.53;;;9.60;;
8007;SDS011;4049;49.468;11.200;2022-12-18T12:03:47;25.73;;;10.67;;
8007;SDS011;4049;49.468;11.200;2022-12-18T12:06:29;19.63;;;8.87;;
8007;SDS011;4049;49.468;11.200;2022-12-18T12:09:10;25.00;;;10.10;;
8007;SDS011;4049;49.468;11.200;2022-12-18T12:11:46;25.87;;;9.67;;
8007;SDS011;4049;49.468;11.200;2022-12-18T12:14:23;21.47;;;9.60;;
8007;SDS011;4049;49.468;11.200;2022-12-18T12:17:08;24.93;;;9.90;;
8007;SDS011;4049;49.468;11.200;2022-12-18T12:19:43;23.97;;;9.97;;
8007;SDS011;4049;49.468;11.200;2022-12-18T12:22:20;19.60;;;8.57;;
8007;SDS011;4049;49.468;11.200;2022-12-18T12:24:55;20.47;;;8.40;;
8007;SDS011;4049;49.468;11.200;2022-12-18T12:27:34;20.40;;;9.43;;
8007;SDS011;4049;49.468;11.200;2022-12-18T12:30:11;18.80;;;9.07;;
8007;SDS011;4049;49.468;11.200;2022-12-18T12:32:45;20.87;;;8.90;;
8007;SDS011;4049;49.468;11.200;2022-12-18T12:35:25;20.73;;;9.27;;
8007;SDS011;4049;49.468;11.200;2022-12-18T12:38:01;20.73;;;8.63;;
8007;SDS011;4049;49.468;11.200;2022-12-18T12:40:34;20.93;;;9.30;;
8007;SDS011;4049;49.468;11.200;2022-12-18T12:43:12;19.47;;;9.00;;
8007;SDS011;4049;49.468;11.200;2022-12-18T12:45:47;22.67;;;9.60;;
8007;SDS011;4049;49.468;11.200;2022-12-18T12:48:19;19.83;;;9.37;;
8007;SDS011;4049;49.468;11.200;2022-12-18T12:50:55;23.47;;;9.73;;
8007;SDS011;4049;49.468;11.200;2022-12-18T12:53:26;19.73;;;9.00;;
8007;SDS011;4049;49.468;11.200;2022-12-18T12:55:59;19.03;;;8.07;;
8007;SDS011;4049;49.468;11.200;2022-12-18T12:58:29;24.27;;;10.87;;
8007;SDS011;4049;49.468;11.200;2022-12-18T13:01:01;18.93;;;8.13;;
8007;SDS011;4049;49.468;11.200;2022-12-18T13:03:41;22.90;;;9.07;;
8007;SDS011;4049;49.468;11.200;2022-12-18T13:06:15;17.50;;;8.27;;
8007;SDS011;4049;49.468;11.200;2022-12-18T13:08:53;18.27;;;8.57;;
8007;SDS011;4049;49.468;11.200;2022-12-18T13:11:29;18.97;;;9.10;;
8007;SDS011;4049;49.468;11.200;2022-12-18T13:14:20;19.60;;;9.30;;
8007;SDS011;4049;49.468;11.200;2022-12-18T13:16:48;23.07;;;9.47;;
8007;SDS011;4049;49.468;11.200;2022-12-18T13:19:20;19.27;;;9.00;;
8007;SDS011;4049;49.468;11.200;2022-12-18T13:21:53;19.37;;;8.60;;
8007;SDS011;4049;49.468;11.200;2022-12-18T13:24:23;19.30;;;8.43;;
8007;SDS011;4049;49.468;11.200;2022-12-18T13:26:52;19.93;;;8.30;;
8007;SDS011;4049;49.468;11.200;2022-12-18T13:32:20;16.83;;;7.83;;
8007;SDS011;4049;49.468;11.200;2022-12-18T13:34:48;19.13;;;8.60;;
8007;SDS011;4049;49.468;11.200;2022-12-18T13:43:27;19.00;;;8.57;;
8007;SDS011;4049;49.468;11.200;2022-12-18T13:46:16;23.27;;;10.30;;
8007;SDS011;4049;49.468;11.200;2022-12-18T13:48:49;28.60;;;12.43;;
8007;SDS011;4049;49.468;11.200;2022-12-18T13:51:28;24.77;;;11.10;;
8007;SDS011;4049;49.468;11.200;2022-12-18T13:53:58;22.10;;;9.17;;
8007;SDS011;4049;49.468;11.200;2022-12-18T13:56:27;21.37;;;8.37;;
8007;SDS011;4049;49.468;11.200;2022-12-18T13:59:06;24.27;;;9.93;;
8007;SDS011;4049;49.468;11.200;2022-12-18T14:01:45;18.67;;;8.37;;
8007;SDS011;4049;49.468;11.200;2022-12-18T14:04:18;20.83;;;8.73;;
8007;SDS011;4049;49.468;11.200;2022-12-18T14:06:47;19.23;;;8.83;;
8007;SDS011;4049;49.468;11.200;2022-12-18T14:09:19;23.03;;;9.23;;
8007;SDS011;4049;49.468;11.200;2022-12-18T14:11:50;22.73;;;9.57;;
8007;SDS011;4049;49.468;11.200;2022-12-18T14:14:40;27.70;;;9.87;;
8007;SDS011;4049;49.468;11.200;2022-12-18T14:17:10;23.90;;;10.13;;
8007;SDS011;4049;49.468;11.200;2022-12-18T14:19:40;21.97;;;9.90;;
8007;SDS011;4049;49.468;11.200;2022-12-18T14:22:11;17.67;;;8.97;;
8007;SDS011;4049;49.468;11.200;2022-12-18T14:24:43;22.87;;;9.50;;
8007;SDS011;4049;49.468;11.200;2022-12-18T14:27:20;22.33;;;10.37;;
8007;SDS011;4049;49.468;11.200;2022-12-18T14:29:49;23.77;;;9.87;;
8007;SDS011;4049;49.468;11.200;2022-12-18T14:32:19;20.17;;;8.60;;
8007;SDS011;4049;49.468;11.200;2022-12-18T14:34:48;19.73;;;8.27;;
8007;SDS011;4049;49.468;11.200;2022-12-18T14:37:16;20.70;;;8.97;;
8007;SDS011;4049;49.468;11.200;2022-12-18T14:39:54;24.93;;;10.63;;
8007;SDS011;4049;49.468;11.200;2022-12-18T14:42:23;19.40;;;9.40;;
8007;SDS011;4049;49.468;11.200;2022-12-18T14:47:52;18.70;;;9.53;;
8007;SDS011;4049;49.468;11.200;2022-12-18T14:50:19;35.60;;;15.20;;
8007;SDS011;4049;49.468;11.200;2022-12-18T14:52:46;46.13;;;17.57;;
8007;SDS011;4049;49.468;11.200;2022-12-18T14:55:16;49.47;;;19.47;;
8007;SDS011;4049;49.468;11.200;2022-12-18T14:57:44;41.70;;;17.40;;
8007;SDS011;4049;49.468;11.200;2022-12-18T15:00:15;21.37;;;8.37;;
8007;SDS011;4049;49.468;11.200;2022-12-18T15:02:44;23.40;;;10.13;;
8007;SDS011;4049;49.468;11.200;2022-12-18T15:05:16;19.73;;;9.17;;
8007;SDS011;4049;49.468;11.200;2022-12-18T15:07:46;28.30;;;13.27;;
8007;SDS011;4049;49.468;11.200;2022-12-18T15:10:16;17.43;;;9.80;;
8007;SDS011;4049;49.468;11.200;2022-12-18T15:12:46;23.10;;;9.77;;
8007;SDS011;4049;49.468;11.200;2022-12-18T15:18:13;21.47;;;10.23;;
8007;SDS011;4049;49.468;11.200;2022-12-18T15:20:43;23.60;;;9.70;;
8007;SDS011;4049;49.468;11.200;2022-12-18T15:23:14;23.80;;;10.23;;